createdAt,value
2023-03-31T00:00:51.915Z,8.30
2023-03-31T00:03:21.988Z,8.20
2023-03-31T00:05:53.427Z,8.20
2023-03-31T00:08:21.259Z,8.10
2023-03-31T00:10:48.522Z,8.10
2023-03-31T00:13:15.578Z,8.10
2023-03-31T00:15:42.776Z,8.10
2023-03-31T00:18:09.560Z,8.00
2023-03-31T00:20:38.145Z,8.00
2023-03-31T00:23:10.784Z,8.00
2023-03-31T00:25:41.784Z,7.90
2023-03-31T00:28:08.707Z,7.90
2023-03-31T00:30:35.578Z,7.80
2023-03-31T00:33:02.967Z,7.70
2023-03-31T00:35:29.769Z,7.70
2023-03-31T00:37:58.064Z,7.60
2023-03-31T00:40:24.992Z,7.60
2023-03-31T00:42:51.990Z,7.60
2023-03-31T00:45:29.190Z,7.60
2023-03-31T00:48:14.877Z,7.70
2023-03-31T00:50:56.918Z,7.70
2023-03-31T00:53:29.784Z,7.70
2023-03-31T00:56:07.293Z,7.80
2023-03-31T00:58:34.748Z,7.80
2023-03-31T01:01:04.101Z,7.70
2023-03-31T01:03:33.489Z,7.70
2023-03-31T01:06:06.622Z,7.70
2023-03-31T01:08:36.587Z,7.70
2023-03-31T01:11:07.664Z,7.60
2023-03-31T01:13:40.423Z,7.60
2023-03-31T01:16:07.523Z,7.60
2023-03-31T01:18:35.072Z,7.50
2023-03-31T01:22:05.557Z,7.40
2023-03-31T01:25:01.737Z,7.30
2023-03-31T01:27:46.561Z,7.20
2023-03-31T01:30:36.139Z,7.20
2023-03-31T01:33:46.661Z,7.30
2023-03-31T01:36:28.313Z,7.40
2023-03-31T01:39:52.775Z,7.40
2023-03-31T01:42:47.852Z,7.30
2023-03-31T01:45:54.585Z,7.30
2023-03-31T01:48:33.963Z,7.30
2023-03-31T01:51:32.699Z,7.20
2023-03-31T01:54:23.432Z,7.20
2023-03-31T01:57:16.914Z,7.20
2023-03-31T01:59:52.932Z,7.10
2023-03-31T02:02:48.335Z,7.10
2023-03-31T02:05:20.950Z,7.00
2023-03-31T02:07:56.786Z,6.90
2023-03-31T02:10:25.824Z,6.90
2023-03-31T02:12:54.812Z,6.90
2023-03-31T02:15:34.086Z,6.90
2023-03-31T02:18:10.947Z,7.00
2023-03-31T02:20:43.053Z,7.10
2023-03-31T02:23:14.529Z,7.10
2023-03-31T02:25:55.430Z,7.20
2023-03-31T02:28:26.138Z,7.20
2023-03-31T02:31:26.054Z,7.20
2023-03-31T02:33:53.322Z,7.20
2023-03-31T02:36:21.489Z,7.20
2023-03-31T02:39:06.263Z,7.20
2023-03-31T02:41:33.234Z,7.20
2023-03-31T02:44:00.673Z,7.20
2023-03-31T02:46:28.784Z,7.10
2023-03-31T02:48:59.689Z,7.20
2023-03-31T02:51:56.343Z,7.20
2023-03-31T02:55:02.754Z,7.10
2023-03-31T02:57:57.182Z,7.10
2023-03-31T03:01:01.996Z,7.00
2023-03-31T03:03:40.884Z,6.90
2023-03-31T03:06:30.937Z,6.90
2023-03-31T03:09:29.877Z,6.90
2023-03-31T03:12:22.747Z,6.80
2023-03-31T03:15:33.015Z,6.90
2023-03-31T03:18:00.211Z,6.80
2023-03-31T03:20:27.276Z,6.70
2023-03-31T03:22:54.144Z,6.80
2023-03-31T03:25:21.003Z,6.80
2023-03-31T03:27:47.838Z,6.90
2023-03-31T03:30:15.311Z,6.80
2023-03-31T03:32:42.906Z,6.90
2023-03-31T03:35:10.905Z,6.90
2023-03-31T03:37:38.217Z,6.90
2023-03-31T03:40:06.399Z,6.90
2023-03-31T03:42:35.203Z,6.90
2023-03-31T03:45:02.470Z,7.00
2023-03-31T03:47:29.389Z,7.00
2023-03-31T03:49:56.451Z,7.00
2023-03-31T03:52:23.484Z,7.00
2023-03-31T03:54:50.605Z,7.00
2023-03-31T03:57:17.513Z,7.00
2023-03-31T03:59:44.385Z,7.10
2023-03-31T04:02:11.599Z,7.10
2023-03-31T04:04:38.542Z,7.10
2023-03-31T04:07:05.694Z,7.10
2023-03-31T04:09:32.598Z,7.10
2023-03-31T04:11:59.410Z,7.20
2023-03-31T04:14:26.957Z,7.20
2023-03-31T04:16:56.198Z,7.30
2023-03-31T04:19:25.855Z,7.30
2023-03-31T04:21:59.050Z,7.40
2023-03-31T04:24:30.714Z,7.40
2023-03-31T04:26:58.175Z,7.40
2023-03-31T04:29:26.775Z,7.40
2023-03-31T04:31:59.827Z,7.40
2023-03-31T04:34:35.631Z,7.50
2023-03-31T04:37:03.387Z,7.50
2023-03-31T04:39:31.183Z,7.50
2023-03-31T04:41:59.733Z,7.50
2023-03-31T04:44:27.307Z,7.40
2023-03-31T04:46:54.764Z,7.50
2023-03-31T04:49:21.984Z,7.50
2023-03-31T04:51:48.841Z,7.50
2023-03-31T04:54:15.758Z,7.50
2023-03-31T04:56:43.041Z,7.50
2023-03-31T04:59:10.035Z,7.60
2023-03-31T05:01:37.232Z,7.60
2023-03-31T05:04:05.439Z,7.50
2023-03-31T05:06:32.802Z,7.50
2023-03-31T05:08:59.790Z,7.50
2023-03-31T05:11:27.463Z,7.60
2023-03-31T05:13:54.652Z,7.60
2023-03-31T05:16:21.710Z,7.60
2023-03-31T05:18:48.582Z,7.50
2023-03-31T05:21:21.412Z,7.50
2023-03-31T05:23:48.450Z,7.50
2023-03-31T05:26:15.997Z,7.60
2023-03-31T05:28:42.893Z,7.60
2023-03-31T05:31:12.883Z,7.60
2023-03-31T05:33:42.121Z,7.60
2023-03-31T05:36:12.728Z,7.70
2023-03-31T05:38:40.689Z,7.70
2023-03-31T05:41:09.414Z,7.70
2023-03-31T05:43:37.673Z,7.80
2023-03-31T05:46:05.331Z,7.90
2023-03-31T05:48:32.587Z,7.90
2023-03-31T05:51:00.790Z,8.00
2023-03-31T05:53:28.241Z,8.00
2023-03-31T05:56:00.220Z,8.10
2023-03-31T05:58:28.706Z,8.20
2023-03-31T06:01:10.737Z,8.30
2023-03-31T06:03:41.513Z,8.40
2023-03-31T06:06:10.166Z,8.40
2023-03-31T06:08:37.857Z,8.50
2023-03-31T06:11:10.926Z,8.60
2023-03-31T06:13:39.060Z,8.70
2023-03-31T06:16:06.973Z,8.70
2023-03-31T06:18:36.164Z,8.80
2023-03-31T06:21:04.051Z,8.80
2023-03-31T06:23:31.516Z,8.90
2023-03-31T06:26:08.161Z,9.00
2023-03-31T06:28:36.472Z,9.00
2023-03-31T06:31:12.435Z,9.00
2023-03-31T06:33:41.803Z,9.10
2023-03-31T06:36:10.655Z,9.20
2023-03-31T06:38:38.559Z,9.30
2023-03-31T06:41:12.247Z,9.30
2023-03-31T06:43:39.522Z,9.30
2023-03-31T06:46:07.257Z,9.30
2023-03-31T06:48:34.821Z,9.30
2023-03-31T06:51:04.370Z,9.30
2023-03-31T06:53:31.665Z,9.30
2023-03-31T06:55:58.972Z,9.30
2023-03-31T06:58:27.685Z,9.20
2023-03-31T07:00:55.983Z,9.20
2023-03-31T07:03:25.130Z,9.20
2023-03-31T07:05:53.800Z,9.20
2023-03-31T07:08:21.645Z,9.30
2023-03-31T07:10:50.239Z,9.40
2023-03-31T07:13:18.091Z,9.50
2023-03-31T07:15:47.730Z,9.60
2023-03-31T07:18:16.120Z,9.60
2023-03-31T07:20:44.076Z,9.50
2023-03-31T07:23:11.281Z,9.50
2023-03-31T07:25:38.074Z,9.60
2023-03-31T07:28:06.671Z,9.70
2023-03-31T07:30:33.829Z,9.60
2023-03-31T07:33:02.515Z,9.60
2023-03-31T07:35:31.127Z,9.70
2023-03-31T07:37:58.617Z,9.80
2023-03-31T07:40:28.604Z,9.80
2023-03-31T07:42:55.838Z,9.80
2023-03-31T07:45:25.840Z,9.90
2023-03-31T07:47:53.089Z,10.00
2023-03-31T07:50:21.728Z,10.10
2023-03-31T07:52:48.728Z,9.90
2023-03-31T07:55:16.615Z,9.80
2023-03-31T07:57:45.994Z,9.70
2023-03-31T08:00:16.163Z,9.60
2023-03-31T08:02:44.237Z,9.60
2023-03-31T08:05:13.940Z,9.60
2023-03-31T08:07:44.742Z,9.70
2023-03-31T08:10:16.899Z,9.60
2023-03-31T08:12:44.089Z,9.60
2023-03-31T08:15:11.507Z,9.60
2023-03-31T08:17:39.375Z,9.60
2023-03-31T08:20:08.532Z,9.60
2023-03-31T08:22:35.912Z,9.50
2023-03-31T08:25:04.054Z,9.50
2023-03-31T08:27:35.644Z,9.40
2023-03-31T08:30:04.734Z,9.40
2023-03-31T08:32:33.345Z,9.30
2023-03-31T08:35:00.441Z,9.30
2023-03-31T08:37:31.501Z,9.30
2023-03-31T08:39:58.648Z,9.20
2023-03-31T08:42:47.528Z,9.30
2023-03-31T08:45:36.544Z,9.30
2023-03-31T08:48:16.932Z,9.30
2023-03-31T08:50:51.485Z,9.30
2023-03-31T08:53:31.537Z,9.30
2023-03-31T08:55:59.206Z,9.30
2023-03-31T08:58:49.313Z,9.30
2023-03-31T09:02:01.158Z,9.30
2023-03-31T09:05:08.044Z,9.30
2023-03-31T09:07:52.530Z,9.30
2023-03-31T09:10:46.871Z,9.30
2023-03-31T09:13:51.685Z,9.30
2023-03-31T09:16:45.797Z,9.30
2023-03-31T09:19:29.438Z,9.30
2023-03-31T09:21:56.942Z,9.40
2023-03-31T09:24:44.267Z,9.40
2023-03-31T09:27:13.030Z,9.60
2023-03-31T09:29:46.923Z,9.50
2023-03-31T09:32:27.985Z,9.60
2023-03-31T09:35:03.152Z,9.50
2023-03-31T09:37:33.344Z,9.50
2023-03-31T09:40:07.641Z,9.50
2023-03-31T09:42:38.739Z,9.40
2023-03-31T09:45:06.614Z,9.50
2023-03-31T09:47:43.223Z,9.40
2023-03-31T09:50:12.031Z,9.40
2023-03-31T09:52:44.773Z,9.40
2023-03-31T09:55:36.045Z,9.40
2023-03-31T09:58:08.712Z,9.40
2023-03-31T10:00:36.258Z,9.40
2023-03-31T10:03:08.119Z,9.50
2023-03-31T10:05:39.881Z,9.60
2023-03-31T10:08:43.192Z,9.60
2023-03-31T10:11:12.043Z,9.80
2023-03-31T10:14:04.058Z,9.90
2023-03-31T10:16:46.962Z,10.10
2023-03-31T10:19:27.787Z,10.20
2023-03-31T10:22:06.965Z,10.30
2023-03-31T10:24:43.807Z,10.40
2023-03-31T10:27:28.280Z,10.30
2023-03-31T10:30:01.229Z,10.40
2023-03-31T10:32:34.223Z,10.40
2023-03-31T10:35:07.149Z,10.30
2023-03-31T10:37:36.943Z,10.20
2023-03-31T10:40:21.505Z,10.20
2023-03-31T10:43:19.368Z,10.20
2023-03-31T10:45:51.044Z,10.10
2023-03-31T10:48:45.957Z,10.10
2023-03-31T10:51:27.508Z,10.00
2023-03-31T10:53:56.429Z,10.00
2023-03-31T10:56:58.355Z,10.20
2023-03-31T10:59:37.646Z,10.20
2023-03-31T11:02:40.930Z,10.20
2023-03-31T11:05:33.897Z,10.30
2023-03-31T11:08:47.846Z,10.40
2023-03-31T11:11:59.358Z,10.50
2023-03-31T11:14:44.156Z,10.70
2023-03-31T11:17:29.272Z,10.80
2023-03-31T11:20:09.691Z,11.00
2023-03-31T11:23:31.590Z,11.30
2023-03-31T11:26:12.047Z,11.50
2023-03-31T11:29:28.173Z,11.40
2023-03-31T11:32:31.200Z,11.50
2023-03-31T11:35:43.787Z,11.50
2023-03-31T11:38:28.345Z,11.20
2023-03-31T11:41:06.687Z,11.10
2023-03-31T11:43:44.406Z,11.00
2023-03-31T11:46:36.206Z,11.10
2023-03-31T11:49:18.381Z,11.20
2023-03-31T11:52:15.278Z,11.20
2023-03-31T11:54:54.179Z,11.20
2023-03-31T11:57:28.604Z,11.20
2023-03-31T12:00:06.097Z,11.20
2023-03-31T12:02:53.651Z,11.20
2023-03-31T12:05:24.784Z,11.30
2023-03-31T12:08:04.489Z,11.80
2023-03-31T12:11:04.352Z,12.40
2023-03-31T12:13:55.065Z,13.00
2023-03-31T12:16:33.750Z,13.30
2023-03-31T12:19:36.421Z,13.40
2023-03-31T12:22:27.852Z,13.30
2023-03-31T12:24:55.366Z,13.40
2023-03-31T12:27:30.551Z,13.40
2023-03-31T12:30:06.812Z,13.40
2023-03-31T12:32:40.408Z,13.10
2023-03-31T12:35:25.402Z,13.10
2023-03-31T12:38:07.664Z,13.00
2023-03-31T12:41:24.904Z,13.10
2023-03-31T12:44:14.967Z,13.00
2023-03-31T12:46:56.912Z,13.40
2023-03-31T12:49:41.766Z,13.70
2023-03-31T12:52:22.988Z,13.60
2023-03-31T12:55:28.810Z,13.90
2023-03-31T12:58:31.757Z,14.00
2023-03-31T13:01:07.132Z,14.00
2023-03-31T13:03:49.143Z,13.70
2023-03-31T13:06:27.859Z,13.80
2023-03-31T13:08:59.075Z,13.60
2023-03-31T13:11:38.823Z,13.50
2023-03-31T13:14:05.927Z,13.60
2023-03-31T13:16:35.023Z,13.30
2023-03-31T13:19:02.037Z,13.00
2023-03-31T13:21:29.006Z,12.90
2023-03-31T13:24:01.466Z,12.80
2023-03-31T13:26:34.368Z,12.80
2023-03-31T13:29:24.137Z,12.60
2023-03-31T13:32:03.570Z,12.50
2023-03-31T13:34:44.442Z,12.60
2023-03-31T13:37:28.987Z,12.80
2023-03-31T13:40:32.186Z,12.90
2023-03-31T13:43:32.992Z,13.10
2023-03-31T13:46:46.069Z,13.20
2023-03-31T13:50:04.007Z,13.10
2023-03-31T13:52:53.248Z,13.10
2023-03-31T13:56:00.800Z,13.20
2023-03-31T13:58:52.085Z,13.20
2023-03-31T14:01:41.139Z,13.30
2023-03-31T14:04:41.002Z,13.30
2023-03-31T14:07:20.621Z,13.40
2023-03-31T14:09:50.194Z,13.40
2023-03-31T14:12:33.495Z,13.30
2023-03-31T14:15:00.874Z,13.30
2023-03-31T14:17:35.912Z,12.80
2023-03-31T14:20:39.830Z,12.70
2023-03-31T14:23:21.852Z,12.70
2023-03-31T14:26:13.637Z,12.40
2023-03-31T14:29:06.972Z,12.40
2023-03-31T14:31:54.256Z,12.30
2023-03-31T14:34:48.488Z,11.70
2023-03-31T14:37:21.031Z,10.60
2023-03-31T14:39:54.785Z,9.70
2023-03-31T14:42:44.685Z,9.20
2023-03-31T14:45:24.895Z,9.40
2023-03-31T14:48:00.036Z,9.40
2023-03-31T14:50:35.024Z,9.50
2023-03-31T14:53:02.425Z,9.60
2023-03-31T14:55:54.315Z,9.60
2023-03-31T14:58:34.926Z,9.70
2023-03-31T15:01:06.920Z,9.80
2023-03-31T15:03:38.718Z,10.00
2023-03-31T15:06:06.166Z,10.10
2023-03-31T15:08:35.209Z,10.10
2023-03-31T15:13:56.677Z,9.90
2023-03-31T15:16:44.257Z,10.00
2023-03-31T15:19:24.758Z,10.00
2023-03-31T15:22:14.171Z,10.00
2023-03-31T15:24:41.001Z,10.00
2023-03-31T15:30:08.113Z,10.00
2023-03-31T15:32:39.255Z,10.00
2023-03-31T15:35:21.125Z,10.00
2023-03-31T15:37:52.437Z,10.00
2023-03-31T15:40:29.522Z,10.10
2023-03-31T15:43:13.284Z,10.30
2023-03-31T15:45:49.545Z,10.40
2023-03-31T15:48:34.878Z,10.40
2023-03-31T15:51:05.715Z,10.40
2023-03-31T15:53:45.636Z,10.40
2023-03-31T15:56:44.133Z,10.40
2023-03-31T15:59:37.981Z,10.40
2023-03-31T16:02:19.257Z,10.30
2023-03-31T16:04:51.242Z,10.20
2023-03-31T16:07:28.748Z,10.20
2023-03-31T16:10:15.506Z,10.10
2023-03-31T16:12:57.533Z,10.00
2023-03-31T16:15:38.352Z,10.00
2023-03-31T16:18:14.993Z,9.90
2023-03-31T16:20:54.532Z,10.00
2023-03-31T16:23:28.496Z,9.90
2023-03-31T16:25:56.403Z,9.90
2023-03-31T16:28:31.656Z,9.80
2023-03-31T16:31:02.144Z,9.80
2023-03-31T16:33:31.485Z,9.80
2023-03-31T16:35:58.956Z,9.80
2023-03-31T16:38:28.745Z,9.90
2023-03-31T16:40:57.686Z,9.90
2023-03-31T16:43:27.527Z,9.90
2023-03-31T16:45:58.540Z,9.90
2023-03-31T16:48:28.490Z,9.90
2023-03-31T16:50:58.106Z,10.00
2023-03-31T16:53:28.910Z,9.90
2023-03-31T16:55:57.184Z,9.80
2023-03-31T16:58:24.709Z,9.80
2023-03-31T17:00:52.248Z,9.80
2023-03-31T17:03:19.368Z,9.80
2023-03-31T17:05:52.631Z,9.80
2023-03-31T17:08:20.426Z,9.90
2023-03-31T17:10:55.566Z,9.90
2023-03-31T17:13:22.568Z,9.90
2023-03-31T17:15:52.115Z,9.90
2023-03-31T17:18:23.033Z,9.80
2023-03-31T17:20:50.020Z,9.80
2023-03-31T17:23:16.903Z,9.90
2023-03-31T17:25:53.098Z,9.90
2023-03-31T17:28:20.270Z,9.90
2023-03-31T17:30:48.781Z,9.90
2023-03-31T17:33:16.960Z,9.80
2023-03-31T17:35:43.996Z,9.80
2023-03-31T17:38:14.255Z,9.70
2023-03-31T17:40:41.311Z,9.70
2023-03-31T17:43:08.267Z,9.70
2023-03-31T17:45:35.048Z,9.70
2023-03-31T17:48:01.908Z,9.70
2023-03-31T17:50:29.174Z,9.60
2023-03-31T17:52:56.076Z,9.30
2023-03-31T17:55:23.425Z,9.20
2023-03-31T17:57:50.534Z,9.10
2023-03-31T18:00:17.688Z,9.10
2023-03-31T18:02:44.687Z,9.00
2023-03-31T18:05:11.878Z,9.00
2023-03-31T18:07:38.828Z,9.00
2023-03-31T18:10:06.590Z,9.00
2023-03-31T18:12:36.426Z,9.00
2023-03-31T18:15:06.944Z,9.00
2023-03-31T18:17:34.262Z,9.00
2023-03-31T18:20:01.273Z,9.00
2023-03-31T18:22:28.697Z,9.00
2023-03-31T18:24:55.634Z,9.00
2023-03-31T18:27:23.922Z,9.00
2023-03-31T18:29:52.130Z,8.90
2023-03-31T18:32:19.234Z,8.90
2023-03-31T18:34:46.873Z,9.00
2023-03-31T18:37:13.785Z,8.90
2023-03-31T18:39:40.663Z,9.00
2023-03-31T18:42:07.664Z,9.00
2023-03-31T18:44:36.018Z,9.00
2023-03-31T18:47:03.064Z,9.00
2023-03-31T18:49:29.883Z,9.10
2023-03-31T18:51:58.579Z,9.20
2023-03-31T18:54:25.470Z,9.30
2023-03-31T18:56:52.320Z,9.30
2023-03-31T18:59:19.300Z,9.30
2023-03-31T19:01:46.603Z,9.40
2023-03-31T19:04:13.758Z,9.40
2023-03-31T19:06:40.678Z,9.40
2023-03-31T19:09:08.002Z,9.50
2023-03-31T19:11:35.005Z,9.50
2023-03-31T19:14:01.942Z,9.60
2023-03-31T19:16:28.878Z,9.60
2023-03-31T19:18:55.907Z,9.70
2023-03-31T19:21:23.180Z,9.70
2023-03-31T19:23:50.056Z,9.70
2023-03-31T19:26:19.500Z,9.70
2023-03-31T19:28:48.187Z,9.70
2023-03-31T19:31:15.516Z,9.70
2023-03-31T19:33:42.641Z,9.70
2023-03-31T19:36:09.723Z,9.80
2023-03-31T19:38:36.807Z,9.80
2023-03-31T19:41:05.481Z,9.80
2023-03-31T19:43:33.047Z,9.80
2023-03-31T19:46:00.852Z,9.70
2023-03-31T19:48:32.071Z,9.70
2023-03-31T19:51:04.032Z,9.70
2023-03-31T19:53:31.613Z,9.80
2023-03-31T19:56:07.972Z,9.70
2023-03-31T19:58:36.312Z,9.70
2023-03-31T20:01:07.260Z,9.70
2023-03-31T20:03:34.873Z,9.70
2023-03-31T20:06:11.750Z,9.60
2023-03-31T20:08:42.413Z,9.60
2023-03-31T20:11:13.425Z,9.60
2023-03-31T20:13:42.576Z,9.60
2023-03-31T20:16:13.502Z,9.50
2023-03-31T20:18:43.406Z,9.50
2023-03-31T20:21:13.923Z,9.40
2023-03-31T20:23:42.944Z,9.40
2023-03-31T20:26:13.949Z,9.40
2023-03-31T20:28:52.008Z,9.40
2023-03-31T20:31:25.687Z,9.50
2023-03-31T20:33:54.172Z,9.40
2023-03-31T20:36:23.950Z,9.40
2023-03-31T20:38:53.723Z,9.40
2023-03-31T20:41:24.429Z,9.40
2023-03-31T20:43:51.964Z,9.40
2023-03-31T20:46:19.338Z,9.30
2023-03-31T20:48:52.210Z,9.30
2023-03-31T20:51:28.162Z,9.40
2023-03-31T20:53:57.608Z,9.40
2023-03-31T20:56:40.399Z,9.50
2023-03-31T20:59:13.573Z,9.40
2023-03-31T21:01:42.291Z,9.30
2023-03-31T21:04:11.526Z,9.30
2023-03-31T21:06:42.687Z,9.30
2023-03-31T21:09:11.728Z,9.30
2023-03-31T21:11:42.461Z,9.30
2023-03-31T21:14:16.842Z,9.30
2023-03-31T21:16:45.475Z,9.30
2023-03-31T21:19:12.557Z,9.30
2023-03-31T21:21:41.288Z,9.20
2023-03-31T21:24:11.403Z,9.20
2023-03-31T21:26:38.791Z,9.20
2023-03-31T21:29:05.834Z,9.30
2023-03-31T21:31:33.075Z,9.20
2023-03-31T21:34:02.338Z,9.20
2023-03-31T21:36:29.462Z,9.10
2023-03-31T21:38:57.845Z,9.10
2023-03-31T21:41:30.000Z,9.10
2023-03-31T21:44:00.435Z,9.10
2023-03-31T21:46:31.890Z,9.10
2023-03-31T21:48:59.230Z,9.00
2023-03-31T21:51:26.598Z,9.00
2023-03-31T21:53:55.588Z,9.00
2023-03-31T21:56:24.694Z,9.00
2023-03-31T21:58:51.667Z,9.00
2023-03-31T22:01:19.567Z,8.90
2023-03-31T22:03:46.992Z,8.80
2023-03-31T22:06:13.953Z,8.80
2023-03-31T22:08:41.335Z,8.80
2023-03-31T22:11:10.980Z,8.90
2023-03-31T22:13:38.829Z,8.90
2023-03-31T22:16:15.532Z,8.80
2023-03-31T22:18:42.795Z,8.80
2023-03-31T22:21:36.070Z,8.80
2023-03-31T22:24:02.928Z,8.80
2023-03-31T22:26:31.522Z,8.80
2023-03-31T22:28:58.669Z,8.70
2023-03-31T22:31:26.978Z,8.60
2023-03-31T22:33:54.180Z,8.50
2023-03-31T22:36:21.392Z,8.40
2023-03-31T22:38:48.656Z,8.40
2023-03-31T22:41:15.632Z,8.40
2023-03-31T22:43:45.371Z,8.30
2023-03-31T22:46:13.478Z,8.30
2023-03-31T22:48:40.514Z,8.20
2023-03-31T22:51:08.466Z,8.30
2023-03-31T22:53:35.372Z,8.40
2023-03-31T22:56:09.877Z,8.40
2023-03-31T22:58:37.529Z,8.30
2023-03-31T23:01:06.938Z,8.30
2023-03-31T23:03:33.962Z,8.40
2023-03-31T23:06:06.540Z,8.40
2023-03-31T23:08:35.708Z,8.20
2023-03-31T23:11:05.978Z,8.20
2023-03-31T23:13:33.125Z,8.00
2023-03-31T23:16:09.798Z,8.00
2023-03-31T23:18:39.260Z,8.00
2023-03-31T23:21:06.953Z,8.00
2023-03-31T23:23:34.054Z,8.00
2023-03-31T23:26:02.864Z,8.10
2023-03-31T23:28:29.903Z,8.00
2023-03-31T23:30:56.911Z,8.00
2023-03-31T23:33:24.509Z,8.00
2023-03-31T23:35:53.050Z,7.90
2023-03-31T23:38:20.696Z,7.90
2023-03-31T23:40:48.537Z,7.90
2023-03-31T23:43:16.412Z,7.90
2023-03-31T23:45:43.743Z,7.90
2023-03-31T23:48:10.716Z,7.90
2023-03-31T23:50:38.274Z,7.90
2023-03-31T23:53:05.338Z,8.00
2023-03-31T23:55:32.276Z,8.00
2023-03-31T23:57:59.644Z,8.00
